Weather History for Jefferson, NC

Change the Weather History Date:

Tuesday, February 3, 2009

  Actual Average Record
Temperature  
Mean Temperature 22 °F -  
Max Temperature 28 °F 45 °F 70 °F (1989)
Min Temperature 17 °F 23 °F 4 °F (1981)
Degree Days  
Heating Degree Days 42    
Moisture  
Dew Point 14 °F    
Average Humidity 69    
Maximum Humidity 93    
Minimum Humidity 47    
Precipitation  
Precipitation 0.00 in - - ()
Sea Level Pressure  
Sea Level Pressure 29.79 in    
Wind  
Wind Speed 13 mph (WNW)    
Max Wind Speed 22 mph    
Max Gust Speed 32 mph    
Visibility 8 miles    
Events Snow    
Averages and records for this station are not official NWS values.
T = Trace of Precipitation, MM = Missing Value Source: NWS Daily Summary

Daily Weather History Graph

Daily Weather History Graph

Search for Another Location

Airport:

Trip Planner

Search our weather history database for the weather conditions in past years. The results will help you decide how hot, cold, wet, or windy it might be!

Date:

Astronomy

Feb. 03, 2009 Rise Set
Actual Time 7:25 AM EST 5:54 PM EST
Civil Twilight 6:58 AM EST 6:21 PM EST
Nautical Twilight 6:27 AM EST 6:51 PM EST
Astronomical Twilight 5:57 AM EST 7:22 PM EST
Moon 11:37 AM EST (2/3) 1:40 AM EST (2/3)
Length of Visible Light 11h 22m
Length of Day
10h 28m
First Quarter, 58% of the Moon is Illuminated
Feb 3
First Quarter
Feb 9
Full
Feb 16
Last Quarter
Feb 24
New
Mar 4
First Quarter

Hourly Weather History & Observations

Time (EST) Temp. Windchill Dew Point Humidity Pressure Visibility Wind Dir Wind Speed Gust Speed Precip Events Conditions
12:01 AM 24.8 °F 11.5 °F 17.6 °F 74% 29.82 in 10.0 mi NW 17.3 mph 25.3 mph N/A   Clear
12:21 AM 24.8 °F 10.7 °F 15.8 °F 69% 29.82 in 10.0 mi NW 19.6 mph 31.1 mph N/A   Clear
12:41 AM 23.0 °F 9.2 °F 15.8 °F 74% 29.82 in 10.0 mi NW 17.3 mph 28.8 mph N/A   Clear
1:01 AM 23.0 °F 8.7 °F 15.8 °F 74% 29.82 in 10.0 mi NW 18.4 mph 28.8 mph N/A   Clear
1:21 AM 23.0 °F 8.7 °F 15.8 °F 74% 29.82 in 10.0 mi NNW 18.4 mph 28.8 mph N/A   Clear
1:41 AM 23.0 °F 8.0 °F 15.8 °F 74% 29.82 in 10.0 mi NNW 20.7 mph 27.6 mph N/A   Clear
2:01 AM 23.0 °F 8.7 °F 15.8 °F 74% 29.82 in 10.0 mi NW 18.4 mph 26.5 mph N/A   Clear
2:21 AM 23.0 °F 9.2 °F 15.8 °F 74% 29.82 in 10.0 mi NW 17.3 mph 25.3 mph N/A   Scattered Clouds
2:41 AM 23.0 °F 10.1 °F 15.8 °F 74% 29.82 in 10.0 mi NW 15.0 mph 24.2 mph N/A   Mostly Cloudy
3:01 AM 23.0 °F 11.1 °F 15.8 °F 74% 29.81 in 10.0 mi NW 12.7 mph 27.6 mph N/A Snow Light Snow
3:21 AM 23.0 °F 12.4 °F 15.8 °F 74% 29.81 in 10.0 mi NW 10.4 mph 29.9 mph N/A   Overcast
3:41 AM 23.0 °F 7.6 °F 15.8 °F 74% 29.81 in 10.0 mi NNW 21.9 mph 28.8 mph N/A   Overcast
4:01 AM 21.2 °F 11.7 °F 15.8 °F 80% 29.82 in 10.0 mi NW 8.1 mph 18.4 mph N/A   Overcast
4:21 AM 21.2 °F 8.9 °F 14.0 °F 74% 29.82 in 10.0 mi NNW 12.7 mph 32.2 mph N/A   Overcast
4:41 AM 21.2 °F 8.3 °F 14.0 °F 74% 29.82 in 10.0 mi NNW 13.8 mph 25.3 mph N/A Snow Light Snow
5:01 AM 19.4 °F 6.0 °F 12.2 °F 74% 29.82 in 10.0 mi WNW 13.8 mph 18.4 mph N/A Snow Light Snow
5:24 AM 19.4 °F 6.6 °F 12.2 °F 74% 29.81 in 10.0 mi NW 12.7 mph 26.5 mph N/A   Scattered Clouds
5:41 AM 19.4 °F 7.2 °F 12.2 °F 74% 29.82 in 10.0 mi NW 11.5 mph 23.0 mph N/A   Scattered Clouds
6:01 AM 19.4 °F 6.6 °F 10.4 °F 68% 29.82 in 10.0 mi WNW 12.7 mph 23.0 mph N/A   Clear
6:41 AM 17.6 °F 5.0 °F 10.4 °F 73% 29.82 in 10.0 mi NNW 11.5 mph 18.4 mph N/A   Clear
7:01 AM 17.6 °F 5.0 °F 8.6 °F 68% 29.82 in 10.0 mi NW 11.5 mph 18.4 mph N/A   Clear
7:21 AM 17.6 °F 10.7 °F 8.6 °F 68% 29.83 in 10.0 mi NW 4.6 mph 20.7 mph N/A   Clear
7:41 AM 17.6 °F 10.7 °F 10.4 °F 73% 29.82 in 10.0 mi North 4.6 mph - N/A   Clear
8:01 AM 17.6 °F 9.3 °F 10.4 °F 73% 29.82 in 10.0 mi North 5.8 mph - N/A   Clear
8:21 AM 17.6 °F 12.3 °F 8.6 °F 68% 29.81 in 10.0 mi North 3.5 mph - N/A   Clear
8:41 AM 19.4 °F 11.5 °F 10.4 °F 68% 29.80 in 10.0 mi NNW 5.8 mph - N/A   Clear
9:01 AM 19.4 °F 7.9 °F 6.8 °F 58% 29.80 in 10.0 mi NW 10.4 mph - N/A   Clear
9:21 AM 21.2 °F 16.4 °F 6.8 °F 54% 29.81 in 10.0 mi NNW 3.5 mph - N/A   Clear
9:41 AM 21.2 °F 13.6 °F 6.8 °F 54% 29.82 in 10.0 mi WNW 5.8 mph - N/A   Clear
10:03 AM 23.0 °F 15.8 °F 8.6 °F 54% 29.82 in 10.0 mi West 5.8 mph - N/A   Clear
10:21 AM 24.8 °F 17.9 °F 8.6 °F 50% 29.82 in 10.0 mi WSW 5.8 mph - N/A   Clear
10:41 AM 24.8 °F 17.9 °F 8.6 °F 50% 29.83 in 10.0 mi West 5.8 mph - N/A   Clear
11:01 AM 28.4 °F 19.7 °F 10.4 °F 47% 29.83 in 10.0 mi WSW 9.2 mph - N/A   Clear
11:21 AM 28.4 °F 20.4 °F 10.4 °F 47% 29.83 in 10.0 mi WSW 8.1 mph 11.5 mph N/A   Scattered Clouds
11:41 AM 26.6 °F 17.5 °F 10.4 °F 51% 29.82 in 10.0 mi West 9.2 mph 17.3 mph N/A   Mostly Cloudy
12:01 PM 24.8 °F 19.1 °F 12.2 °F 59% 29.81 in 10.0 mi West 4.6 mph 16.1 mph N/A   Overcast
12:21 PM 26.6 °F 15.7 °F 14.0 °F 59% 29.79 in 10.0 mi WNW 12.7 mph 18.4 mph N/A   Overcast
12:41 PM 28.4 °F 19.1 °F 15.8 °F 59% 29.77 in 10.0 mi West 10.4 mph - N/A   Overcast
1:01 PM 28.4 °F 18.0 °F 14.0 °F 55% 29.76 in 10.0 mi West 12.7 mph 20.7 mph N/A   Overcast
1:21 PM 28.4 °F 18.5 °F 15.8 °F 59% 29.75 in 10.0 mi WSW 11.5 mph 18.4 mph N/A   Overcast
1:41 PM 26.6 °F 16.8 °F 15.8 °F 64% 29.75 in 5.0 mi WSW 10.4 mph 19.6 mph N/A Snow Light Snow
2:01 PM 26.6 °F 15.7 °F 14.0 °F 59% 29.74 in 10.0 mi WSW 12.7 mph 19.6 mph N/A   Overcast
2:21 PM 26.6 °F 14.3 °F 15.8 °F 64% 29.73 in 10.0 mi West 16.1 mph 25.3 mph N/A   Overcast
2:41 PM 24.8 °F 14.0 °F 15.8 °F 69% 29.73 in 5.0 mi West 11.5 mph 19.6 mph N/A Snow Light Snow
3:21 PM 24.8 °F 14.0 °F 17.6 °F 74% 29.73 in 7.0 mi West 11.5 mph 20.7 mph N/A Snow Light Snow
3:41 PM 24.8 °F 16.9 °F 19.4 °F 80% 29.73 in 3.0 mi West 6.9 mph - N/A Snow Light Snow
4:01 PM 24.8 °F 16.1 °F 17.6 °F 74% 29.74 in 3.0 mi West 8.1 mph - N/A Snow Light Snow
4:21 PM 24.8 °F 16.9 °F 17.6 °F 74% 29.74 in 5.0 mi West 6.9 mph - N/A Snow Light Snow
4:41 PM 24.8 °F 14.6 °F 17.6 °F 74% 29.74 in 5.0 mi SW 10.4 mph 16.1 mph N/A Snow Light Snow
5:01 PM 24.8 °F 16.1 °F 15.8 °F 69% 29.75 in 10.0 mi West 8.1 mph 23.0 mph N/A   Mostly Cloudy
5:23 PM 23.0 °F 11.7 °F 17.6 °F 80% 29.75 in 1.2 mi West 11.5 mph 16.1 mph N/A Snow Light Snow
5:41 PM 24.8 °F 16.1 °F 15.8 °F 69% 29.75 in 10.0 mi West 8.1 mph 17.3 mph N/A   Mostly Cloudy
6:01 PM 24.8 °F 13.4 °F 14.0 °F 64% 29.75 in 10.0 mi WNW 12.7 mph 19.6 mph N/A   Mostly Cloudy
6:21 PM 24.8 °F 13.4 °F 14.0 °F 64% 29.76 in 10.0 mi West 12.7 mph 16.1 mph N/A   Mostly Cloudy
6:41 PM 24.8 °F 17.9 °F 15.8 °F 69% 29.76 in 10.0 mi WNW 5.8 mph - N/A   Overcast
7:01 PM 23.0 °F 15.8 °F 15.8 °F 74% 29.76 in 5.0 mi WNW 5.8 mph - N/A Snow Light Snow
7:41 PM 21.2 °F 16.4 °F 17.6 °F 86% 29.76 in 2.5 mi West 3.5 mph - N/A Snow Light Snow
8:21 PM 21.2 °F 14.9 °F 19.4 °F 93% - 2.5 mi NNW 4.6 mph - N/A Snow Light Snow
8:41 PM 21.2 °F 10.9 °F 19.4 °F 93% 29.77 in 0.5 mi NW 9.2 mph - N/A Snow Snow
9:01 PM 21.2 °F 10.9 °F 17.6 °F 86% 29.78 in 1.5 mi WNW 9.2 mph - N/A Snow Light Snow
9:21 PM 19.4 °F 7.9 °F 17.6 °F 93% - 0.2 mi NW 10.4 mph - N/A Snow Heavy Snow
9:41 PM 19.4 °F 3.6 °F 15.8 °F 86% 29.78 in 0.5 mi West 19.6 mph 28.8 mph N/A Snow Heavy Snow
10:01 PM 17.6 °F -0.6 °F 12.2 °F 79% 29.79 in 1.8 mi WNW 25.3 mph 39.1 mph N/A Snow Light Snow
10:21 PM 15.8 °F -2.7 °F 8.6 °F 73% 29.79 in 5.0 mi WNW 24.2 mph 34.5 mph N/A Snow Light Snow
10:41 PM 14.0 °F -5.8 °F 8.6 °F 79% 29.80 in 1.0 mi WNW 26.5 mph 34.5 mph N/A Snow Light Snow
11:01 PM 12.2 °F -7.9 °F 6.8 °F 79% 29.80 in 1.8 mi West 25.3 mph 35.7 mph N/A Snow Light Snow
11:21 PM 10.4 °F -11.0 °F 1.4 °F 67% 29.80 in 0.8 mi WNW 27.6 mph 47.2 mph N/A Snow Light Snow
11:41 PM 10.4 °F -5.4 °F 1.4 °F 67% 29.81 in 1.5 mi WNW 13.8 mph 38.0 mph N/A Snow Light Snow